createdAt,value
2022-10-22T00:00:12.029Z,100186.78
2022-10-22T00:02:39.200Z,100191.38
2022-10-22T00:05:06.972Z,100196.13
2022-10-22T00:07:33.765Z,100191.72
2022-10-22T00:10:00.426Z,100205.25
2022-10-22T00:12:27.587Z,100199.56
2022-10-22T00:14:54.296Z,100208.16
2022-10-22T00:17:20.960Z,100209.19
2022-10-22T00:19:47.682Z,100215.31
2022-10-22T00:22:14.314Z,100206.56
2022-10-22T00:24:41.729Z,100202.31
2022-10-22T00:27:12.230Z,100203.19
2022-10-22T00:29:42.091Z,100203.53
2022-10-22T00:32:08.818Z,100204.91
2022-10-22T00:34:35.533Z,100207.59
2022-10-22T00:37:02.282Z,100197.81
2022-10-22T00:39:29.654Z,100194.94
2022-10-22T00:41:58.558Z,100193.59
2022-10-22T00:45:03.851Z,100198.66
2022-10-22T00:48:05.809Z,100201.34
2022-10-22T00:51:06.554Z,100201.84
2022-10-22T00:53:55.986Z,100199.69
2022-10-22T00:56:24.713Z,100197.84
2022-10-22T00:58:59.489Z,100194.03
2022-10-22T01:01:32.379Z,100201.66
2022-10-22T01:04:00.657Z,100209.59
2022-10-22T01:06:34.183Z,100203.81
2022-10-22T01:09:30.425Z,100205.81
2022-10-22T01:12:35.680Z,100209.06
2022-10-22T01:15:53.726Z,100217.84
2022-10-22T01:18:54.162Z,100208.69
2022-10-22T01:21:55.699Z,100207.84
2022-10-22T01:24:58.432Z,100210.03
2022-10-22T01:27:57.173Z,100198.34
2022-10-22T01:30:25.860Z,100194.81
2022-10-22T01:33:02.189Z,100201.06
2022-10-22T01:35:41.438Z,100199.38
2022-10-22T01:38:17.522Z,100201.22
2022-10-22T01:40:47.398Z,100194.81
2022-10-22T01:43:14.411Z,100193.47
2022-10-22T01:45:54.022Z,100199.56
2022-10-22T01:49:16.722Z,100198.72
2022-10-22T01:52:16.095Z,100203.78
2022-10-22T01:55:06.971Z,100215.25
2022-10-22T01:58:08.886Z,100219.47
2022-10-22T02:00:50.503Z,100215.72
2022-10-22T02:03:36.047Z,100214.72
2022-10-22T02:06:16.852Z,100224.63
2022-10-22T02:08:46.897Z,100214.69
2022-10-22T02:11:15.718Z,100219.22
2022-10-22T02:13:57.727Z,100215.69
2022-10-22T02:16:40.304Z,100222.25
2022-10-22T02:19:25.723Z,100210.22
2022-10-22T02:21:54.438Z,100215.81
2022-10-22T02:24:23.193Z,100214.97
2022-10-22T02:27:09.802Z,100209.06
2022-10-22T02:30:04.907Z,100204.47
2022-10-22T02:33:04.817Z,100207.19
2022-10-22T02:35:32.385Z,100204.00
2022-10-22T02:38:01.163Z,100200.47
2022-10-22T02:40:31.153Z,100216.41
2022-10-22T02:42:57.919Z,100208.28
2022-10-22T02:45:25.703Z,100215.72
2022-10-22T02:47:52.727Z,100216.41
2022-10-22T02:50:19.336Z,100215.22
2022-10-22T02:52:45.977Z,100208.75
2022-10-22T02:55:12.692Z,100198.78
2022-10-22T02:57:39.555Z,100207.72
2022-10-22T03:00:10.968Z,100207.09
2022-10-22T03:02:37.751Z,100208.47
2022-10-22T03:05:06.015Z,100215.09
2022-10-22T03:07:33.301Z,100202.56
2022-10-22T03:10:00.010Z,100206.09
2022-10-22T03:12:26.635Z,100208.66
2022-10-22T03:14:53.241Z,100203.41
2022-10-22T03:17:19.893Z,100205.44
2022-10-22T03:19:46.537Z,100210.03
2022-10-22T03:22:28.930Z,100213.41
2022-10-22T03:25:07.708Z,100210.56
2022-10-22T03:27:39.455Z,100197.72
2022-10-22T03:30:08.259Z,100210.63
2022-10-22T03:32:34.989Z,100202.50
2022-10-22T03:35:01.696Z,100208.75
2022-10-22T03:37:28.701Z,100216.34
2022-10-22T03:39:55.687Z,100220.31
2022-10-22T03:42:26.379Z,100226.03
2022-10-22T03:44:53.307Z,100221.63
2022-10-22T03:47:20.127Z,100223.13
2022-10-22T03:49:46.757Z,100223.50
2022-10-22T03:52:15.165Z,100229.38
2022-10-22T03:54:42.334Z,100227.59
2022-10-22T03:57:10.695Z,100237.72
2022-10-22T03:59:45.290Z,100233.78
2022-10-22T04:02:14.183Z,100240.59
2022-10-22T04:04:40.845Z,100239.63
2022-10-22T04:07:08.297Z,100234.63
2022-10-22T04:09:36.023Z,100241.56
2022-10-22T04:12:06.451Z,100251.09
2022-10-22T04:14:36.198Z,100255.63
2022-10-22T04:17:03.059Z,100254.78
2022-10-22T04:19:29.716Z,100259.34
2022-10-22T04:21:59.899Z,100252.09
2022-10-22T04:24:27.493Z,100251.25
2022-10-22T04:26:55.552Z,100251.97
2022-10-22T04:29:23.348Z,100252.84
2022-10-22T04:31:50.145Z,100254.69
2022-10-22T04:34:16.941Z,100244.25
2022-10-22T04:36:43.551Z,100253.91
2022-10-22T04:39:10.139Z,100261.69
2022-10-22T04:41:39.576Z,100260.03
2022-10-22T04:44:11.058Z,100270.69
2022-10-22T04:46:42.822Z,100274.00
2022-10-22T04:49:09.488Z,100275.63
2022-10-22T04:51:36.419Z,100286.34
2022-10-22T04:54:03.130Z,100277.69
2022-10-22T04:56:32.497Z,100276.31
2022-10-22T04:59:08.079Z,100280.00
2022-10-22T05:01:43.346Z,100275.06
2022-10-22T05:04:17.498Z,100279.94
2022-10-22T05:06:44.710Z,100282.66
2022-10-22T05:09:20.197Z,100283.50
2022-10-22T05:11:51.438Z,100277.06
2022-10-22T05:14:24.466Z,100279.59
2022-10-22T05:16:52.935Z,100286.88
2022-10-22T05:19:27.941Z,100293.13
2022-10-22T05:22:02.965Z,100290.41
2022-10-22T05:24:35.273Z,100294.31
2022-10-22T05:27:02.396Z,100283.31
2022-10-22T05:29:29.104Z,100277.91
2022-10-22T05:31:56.129Z,100282.16
2022-10-22T05:34:23.094Z,100286.06
2022-10-22T05:36:49.882Z,100282.69
2022-10-22T05:39:16.501Z,100288.31
2022-10-22T05:41:43.172Z,100281.38
2022-10-22T05:44:13.495Z,100284.28
2022-10-22T05:46:40.738Z,100287.16
2022-10-22T05:49:08.077Z,100281.06
2022-10-22T05:51:37.367Z,100280.41
2022-10-22T05:54:08.044Z,100275.34
2022-10-22T05:56:36.769Z,100278.22
2022-10-22T06:01:35.910Z,100269.81
2022-10-22T06:04:11.122Z,100280.81
2022-10-22T06:06:50.173Z,100278.47
2022-10-22T06:09:28.418Z,100276.28
2022-10-22T06:11:57.289Z,100286.44
2022-10-22T06:14:25.474Z,100293.88
2022-10-22T06:16:52.845Z,100290.34
2022-10-22T06:19:23.252Z,100295.75
2022-10-22T06:21:50.139Z,100293.22
2022-10-22T06:24:16.832Z,100293.06
2022-10-22T06:26:44.008Z,100297.59
2022-10-22T06:29:11.291Z,100306.06
2022-10-22T06:31:37.979Z,100303.81
2022-10-22T06:34:10.417Z,100309.56
2022-10-22T06:36:38.201Z,100313.13
2022-10-22T06:39:07.206Z,100315.47
2022-10-22T06:41:33.975Z,100322.75
2022-10-22T06:44:00.756Z,100333.03
2022-10-22T06:46:28.025Z,100332.03
2022-10-22T06:49:02.883Z,100335.38
2022-10-22T06:51:30.472Z,100346.03
2022-10-22T06:54:01.446Z,100347.91
2022-10-22T06:56:29.517Z,100339.41
2022-10-22T06:58:58.557Z,100352.63
2022-10-22T07:01:30.897Z,100349.56
2022-10-22T07:03:58.745Z,100344.97
2022-10-22T07:06:28.352Z,100350.22
2022-10-22T07:08:58.624Z,100348.31
2022-10-22T07:11:43.091Z,100348.78
2022-10-22T07:14:11.696Z,100341.00
2022-10-22T07:16:39.105Z,100347.25
2022-10-22T07:19:05.814Z,100350.78
2022-10-22T07:21:32.873Z,100352.13
2022-10-22T07:23:59.938Z,100357.69
2022-10-22T07:26:30.885Z,100353.38
2022-10-22T07:29:01.947Z,100359.31
2022-10-22T07:31:29.158Z,100365.03
2022-10-22T07:33:56.218Z,100369.97
2022-10-22T07:36:26.040Z,100360.97
2022-10-22T07:38:59.342Z,100369.47
2022-10-22T07:41:29.489Z,100373.38
2022-10-22T07:43:58.198Z,100368.50
2022-10-22T07:46:26.829Z,100369.19
2022-10-22T07:48:57.013Z,100384.53
2022-10-22T07:51:23.696Z,100382.47
2022-10-22T07:53:50.343Z,100376.81
2022-10-22T07:56:17.656Z,100375.78
2022-10-22T07:58:44.322Z,100382.84
2022-10-22T08:01:11.398Z,100390.50
2022-10-22T08:03:38.134Z,100380.16
2022-10-22T08:06:05.475Z,100398.09
2022-10-22T08:08:34.807Z,100391.38
2022-10-22T08:11:02.294Z,100391.28
2022-10-22T08:13:30.606Z,100385.34
2022-10-22T08:16:00.477Z,100389.75
2022-10-22T08:18:28.479Z,100391.78
2022-10-22T08:20:56.071Z,100403.47
2022-10-22T08:23:26.027Z,100403.16
2022-10-22T08:25:56.750Z,100414.31
2022-10-22T08:28:23.553Z,100411.09
2022-10-22T08:30:50.402Z,100420.41
2022-10-22T08:33:17.148Z,100425.00
2022-10-22T08:35:52.771Z,100427.34
2022-10-22T08:38:20.778Z,100421.22
2022-10-22T08:41:06.223Z,100424.47
2022-10-22T08:44:13.136Z,100415.66
2022-10-22T08:47:40.368Z,100417.56
2022-10-22T08:50:22.652Z,100418.13
2022-10-22T08:53:01.010Z,100420.59
2022-10-22T08:55:35.112Z,100417.97
2022-10-22T08:58:26.005Z,100420.81
2022-10-22T09:01:00.684Z,100425.81
2022-10-22T09:03:50.196Z,100420.59
2022-10-22T09:06:32.304Z,100425.34
2022-10-22T09:09:02.535Z,100426.34
2022-10-22T09:11:38.000Z,100427.47
2022-10-22T09:14:06.934Z,100431.69
2022-10-22T09:16:55.190Z,100437.06
2022-10-22T09:19:36.438Z,100443.81
2022-10-22T09:22:28.059Z,100447.66
2022-10-22T09:25:21.428Z,100442.88
2022-10-22T09:27:52.464Z,100442.13
2022-10-22T09:30:25.095Z,100448.13
2022-10-22T09:33:26.983Z,100449.78
2022-10-22T09:36:03.494Z,100456.69
2022-10-22T09:38:39.381Z,100461.16
2022-10-22T09:41:06.501Z,100462.94
2022-10-22T09:43:36.032Z,100460.06
2022-10-22T09:46:14.033Z,100467.88
2022-10-22T09:48:58.574Z,100471.66
2022-10-22T09:51:55.754Z,100471.47
2022-10-22T09:54:41.399Z,100473.44
2022-10-22T09:57:21.985Z,100473.75
2022-10-22T09:59:53.921Z,100471.09
2022-10-22T10:02:44.408Z,100473.34
2022-10-22T10:05:24.951Z,100472.63
2022-10-22T10:07:51.548Z,100486.38
2022-10-22T10:10:34.693Z,100477.84
2022-10-22T10:13:43.687Z,100481.03
2022-10-22T10:16:25.439Z,100479.66
2022-10-22T10:19:08.343Z,100481.44
2022-10-22T10:22:31.517Z,100483.28
2022-10-22T10:25:10.175Z,100477.38
2022-10-22T10:27:53.502Z,100477.38
2022-10-22T10:30:24.264Z,100477.47
2022-10-22T10:33:22.026Z,100479.13
2022-10-22T10:36:13.804Z,100472.47
2022-10-22T10:39:24.096Z,100482.53
2022-10-22T10:42:30.714Z,100479.88
2022-10-22T10:45:20.962Z,100469.22
2022-10-22T10:48:16.592Z,100469.63
2022-10-22T10:51:00.460Z,100476.22
2022-10-22T10:54:40.531Z,100475.94
2022-10-22T10:57:42.499Z,100483.13
2022-10-22T11:00:20.112Z,100482.28
2022-10-22T11:03:21.404Z,100488.63
2022-10-22T11:06:15.106Z,100489.66
2022-10-22T11:09:05.617Z,100488.75
2022-10-22T11:11:53.825Z,100486.28
2022-10-22T11:14:55.671Z,100480.19
2022-10-22T11:17:33.304Z,100479.97
2022-10-22T11:20:18.646Z,100475.78
2022-10-22T11:23:18.399Z,100486.38
2022-10-22T11:25:51.528Z,100482.41
2022-10-22T11:28:53.668Z,100486.88
2022-10-22T11:31:25.408Z,100486.72
2022-10-22T11:34:28.640Z,100487.25
2022-10-22T11:36:56.303Z,100489.44
2022-10-22T11:39:55.703Z,100485.19
2022-10-22T11:42:40.940Z,100489.81
2022-10-22T11:45:35.684Z,100489.69
2022-10-22T11:48:09.203Z,100480.06
2022-10-22T11:50:44.718Z,100487.13
2022-10-22T11:53:14.421Z,100491.84
2022-10-22T11:55:48.304Z,100488.84
2022-10-22T11:58:44.918Z,100490.78
2022-10-22T12:01:11.519Z,100491.47
2022-10-22T12:03:48.892Z,100485.75
2022-10-22T12:06:16.409Z,100484.38
2022-10-22T12:08:57.228Z,100479.25
2022-10-22T12:17:38.008Z,100466.31
2022-10-22T12:20:14.251Z,100461.88
2022-10-22T12:22:42.408Z,100459.97
2022-10-22T12:25:25.588Z,100456.53
2022-10-22T12:27:59.411Z,100459.06
2022-10-22T12:30:34.671Z,100458.19
2022-10-22T12:33:07.748Z,100455.41
2022-10-22T12:35:47.744Z,100461.69
2022-10-22T12:38:21.622Z,100445.84
2022-10-22T12:40:51.432Z,100459.69
2022-10-22T12:43:26.168Z,100453.91
2022-10-22T12:45:57.736Z,100450.97
2022-10-22T12:48:36.144Z,100449.72
2022-10-22T12:51:08.073Z,100442.31
2022-10-22T12:53:42.795Z,100441.25
2022-10-22T12:56:22.658Z,100439.75
2022-10-22T12:59:25.691Z,100450.34
2022-10-22T13:01:54.771Z,100442.34
2022-10-22T13:04:37.313Z,100446.00
2022-10-22T13:07:22.291Z,100446.25
2022-10-22T13:10:01.506Z,100444.66
2022-10-22T13:12:36.906Z,100452.94
2022-10-22T13:15:35.114Z,100453.84
2022-10-22T13:18:19.724Z,100456.44
2022-10-22T13:21:02.580Z,100464.91
2022-10-22T13:23:33.986Z,100459.00
2022-10-22T13:26:16.824Z,100458.16
2022-10-22T13:28:56.441Z,100461.34
2022-10-22T13:31:33.345Z,100462.94
2022-10-22T13:34:11.691Z,100458.56
2022-10-22T13:36:39.645Z,100465.38
2022-10-22T13:39:08.846Z,100465.91
2022-10-22T13:44:11.122Z,100466.72
2022-10-22T13:46:42.678Z,100471.09
2022-10-22T13:49:19.289Z,100464.47
2022-10-22T13:51:47.570Z,100470.69
2022-10-22T13:54:22.322Z,100466.16
2022-10-22T13:56:49.262Z,100476.31
2022-10-22T13:59:18.472Z,100475.59
2022-10-22T14:01:48.288Z,100475.09
2022-10-22T14:04:15.556Z,100476.84
2022-10-22T14:06:42.446Z,100473.88
2022-10-22T14:09:16.104Z,100474.63
2022-10-22T14:11:43.125Z,100480.19
2022-10-22T14:14:13.955Z,100473.56
2022-10-22T14:16:40.890Z,100484.56
2022-10-22T14:19:15.033Z,100475.66
2022-10-22T14:21:41.620Z,100478.38
2022-10-22T14:24:13.170Z,100474.16
2022-10-22T14:26:40.938Z,100475.84
2022-10-22T14:29:10.333Z,100481.09
2022-10-22T14:34:16.427Z,100482.59
2022-10-22T14:36:44.167Z,100484.25
2022-10-22T14:39:12.269Z,100480.91
2022-10-22T14:41:40.906Z,100483.91
2022-10-22T14:44:12.561Z,100484.25
2022-10-22T14:46:42.038Z,100471.63
2022-10-22T14:49:08.580Z,100477.44
2022-10-22T14:51:35.249Z,100481.56
2022-10-22T14:54:01.855Z,100478.66
2022-10-22T14:56:28.591Z,100489.06
2022-10-22T14:58:55.274Z,100487.00
2022-10-22T15:01:21.956Z,100485.13
2022-10-22T15:03:48.602Z,100479.19
2022-10-22T15:06:15.359Z,100478.00
2022-10-22T15:08:42.024Z,100486.81
2022-10-22T15:11:12.739Z,100488.50
2022-10-22T15:13:41.265Z,100484.94
2022-10-22T15:16:11.473Z,100485.78
2022-10-22T15:18:38.487Z,100487.84
2022-10-22T15:21:14.654Z,100493.94
2022-10-22T15:23:41.710Z,100493.94
2022-10-22T15:26:11.141Z,100498.78
2022-10-22T15:28:40.341Z,100502.81
2022-10-22T15:31:08.408Z,100499.72
2022-10-22T15:33:35.023Z,100496.81
2022-10-22T15:36:13.470Z,100500.38
2022-10-22T15:38:40.305Z,100500.19
2022-10-22T15:41:12.326Z,100501.22
2022-10-22T15:43:39.099Z,100511.72
2022-10-22T15:46:19.578Z,100512.38
2022-10-22T15:48:46.784Z,100513.22
2022-10-22T15:51:19.728Z,100520.72
2022-10-22T15:53:59.136Z,100520.91
2022-10-22T15:56:29.496Z,100519.22
2022-10-22T15:59:03.975Z,100523.34
2022-10-22T16:01:35.488Z,100527.63
2022-10-22T16:04:02.646Z,100534.28
2022-10-22T16:06:36.666Z,100536.91
2022-10-22T16:09:10.370Z,100528.50
2022-10-22T16:11:39.351Z,100531.03
2022-10-22T16:14:07.656Z,100531.19
2022-10-22T16:16:39.745Z,100530.94
2022-10-22T16:19:07.436Z,100530.63
2022-10-22T16:21:34.096Z,100534.06
2022-10-22T16:24:06.034Z,100536.78
2022-10-22T16:26:34.033Z,100536.28
2022-10-22T16:29:00.764Z,100542.09
2022-10-22T16:31:30.070Z,100547.03
2022-10-22T16:33:58.195Z,100547.59
2022-10-22T16:36:25.168Z,100549.09
2022-10-22T16:38:52.057Z,100544.72
2022-10-22T16:41:23.977Z,100550.31
2022-10-22T16:43:55.166Z,100549.47
2022-10-22T16:46:23.399Z,100553.88
2022-10-22T16:48:53.668Z,100550.31
2022-10-22T16:51:27.843Z,100544.06
2022-10-22T16:53:57.021Z,100549.09
2022-10-22T16:56:25.971Z,100555.19
2022-10-22T16:58:57.440Z,100558.78
2022-10-22T17:01:29.110Z,100559.31
2022-10-22T17:04:02.685Z,100564.94
2022-10-22T17:06:29.500Z,100560.34
2022-10-22T17:08:56.328Z,100567.22
2022-10-22T17:11:25.073Z,100572.91
2022-10-22T17:13:54.799Z,100575.91
2022-10-22T17:16:25.043Z,100585.44
2022-10-22T17:18:55.576Z,100590.91
2022-10-22T17:21:24.643Z,100591.38
2022-10-22T17:23:57.082Z,100596.69
2022-10-22T17:26:26.845Z,100601.50
2022-10-22T17:28:59.391Z,100595.78
2022-10-22T17:31:35.391Z,100608.03
2022-10-22T17:34:04.076Z,100610.25
2022-10-22T17:36:35.669Z,100606.84
2022-10-22T17:39:08.164Z,100601.81
2022-10-22T17:41:37.801Z,100609.44
2022-10-22T17:44:12.163Z,100609.66
2022-10-22T17:46:39.228Z,100607.28
2022-10-22T17:49:17.274Z,100614.56
2022-10-22T17:51:44.284Z,100606.97
2022-10-22T17:54:11.795Z,100611.75
2022-10-22T17:56:40.246Z,100608.00
2022-10-22T17:59:11.555Z,100609.22
2022-10-22T18:01:45.108Z,100613.78
2022-10-22T18:04:18.420Z,100606.19
2022-10-22T18:06:47.630Z,100618.25
2022-10-22T18:09:19.160Z,100622.00
2022-10-22T18:11:50.679Z,100613.84
2022-10-22T18:14:20.489Z,100616.56
2022-10-22T18:16:48.736Z,100610.78
2022-10-22T18:19:23.218Z,100617.22
2022-10-22T18:21:53.573Z,100615.69
2022-10-22T18:24:20.316Z,100625.38
2022-10-22T18:26:47.052Z,100624.19
2022-10-22T18:29:19.079Z,100634.03
2022-10-22T18:31:48.303Z,100627.44
2022-10-22T18:34:17.765Z,100637.47
2022-10-22T18:36:47.227Z,100636.28
2022-10-22T18:39:17.744Z,100644.63
2022-10-22T18:41:44.500Z,100647.34
2022-10-22T18:44:15.147Z,100648.00
2022-10-22T18:46:42.748Z,100646.00
2022-10-22T18:49:18.459Z,100653.47
2022-10-22T18:51:48.821Z,100645.47
2022-10-22T18:54:23.241Z,100645.31
2022-10-22T18:56:50.881Z,100648.56
2022-10-22T18:59:25.124Z,100644.34
2022-10-22T19:01:54.099Z,100652.63
2022-10-22T19:04:20.900Z,100649.25
2022-10-22T19:06:47.731Z,100645.19
2022-10-22T19:09:16.056Z,100651.66
2022-10-22T19:11:45.321Z,100649.94
2022-10-22T19:14:14.714Z,100652.66
2022-10-22T19:16:41.386Z,100659.94
2022-10-22T19:19:08.457Z,100662.84
2022-10-22T19:21:36.532Z,100663.88
2022-10-22T19:24:03.847Z,100658.59
2022-10-22T19:26:31.760Z,100663.19
2022-10-22T19:29:00.483Z,100660.66
2022-10-22T19:31:30.109Z,100665.91
2022-10-22T19:33:58.950Z,100670.50
2022-10-22T19:36:33.143Z,100677.78
2022-10-22T19:39:00.339Z,100675.06
2022-10-22T19:41:30.551Z,100669.81
2022-10-22T19:43:59.628Z,100677.94
2022-10-22T19:46:29.173Z,100680.66
2022-10-22T19:48:57.263Z,100686.06
2022-10-22T19:51:30.638Z,100684.84
2022-10-22T19:54:05.331Z,100694.03
2022-10-22T19:56:34.612Z,100708.09
2022-10-22T19:59:02.214Z,100706.59
2022-10-22T20:01:29.013Z,100711.50
2022-10-22T20:03:55.696Z,100715.38
2022-10-22T20:06:23.270Z,100726.91
2022-10-22T20:08:55.168Z,100722.69
2022-10-22T20:11:30.272Z,100726.41
2022-10-22T20:13:58.448Z,100728.63
2022-10-22T20:16:29.934Z,100728.97
2022-10-22T20:19:05.535Z,100729.47
2022-10-22T20:21:34.368Z,100734.06
2022-10-22T20:24:01.893Z,100732.34
2022-10-22T20:26:29.083Z,100735.22
2022-10-22T20:28:57.953Z,100736.09
2022-10-22T20:31:29.286Z,100730.31
2022-10-22T20:34:02.242Z,100735.56
2022-10-22T20:36:32.213Z,100734.91
2022-10-22T20:39:10.263Z,100731.66
2022-10-22T20:41:40.146Z,100740.81
2022-10-22T20:44:17.749Z,100741.84
2022-10-22T20:46:44.745Z,100731.34
2022-10-22T20:49:17.105Z,100744.19
2022-10-22T20:51:44.677Z,100746.88
2022-10-22T20:54:14.073Z,100738.38
2022-10-22T20:56:42.589Z,100743.94
2022-10-22T20:59:12.184Z,100740.75
2022-10-22T21:01:47.042Z,100741.78
2022-10-22T21:04:15.488Z,100756.84
2022-10-22T21:06:43.076Z,100751.56
2022-10-22T21:09:14.328Z,100753.47
2022-10-22T21:11:43.979Z,100763.47
2022-10-22T21:14:14.733Z,100763.97
2022-10-22T21:16:49.921Z,100764.31
2022-10-22T21:19:20.025Z,100771.78
2022-10-22T21:21:46.625Z,100761.28
2022-10-22T21:24:13.383Z,100765.53
2022-10-22T21:26:43.371Z,100764.03
2022-10-22T21:29:12.765Z,100766.22
2022-10-22T21:31:40.366Z,100769.25
2022-10-22T21:34:07.216Z,100770.78
2022-10-22T21:36:34.510Z,100781.13
2022-10-22T21:39:02.474Z,100773.81
2022-10-22T21:41:29.403Z,100781.63
2022-10-22T21:43:56.114Z,100776.91
2022-10-22T21:46:27.409Z,100774.69
2022-10-22T21:49:04.362Z,100779.75
2022-10-22T21:51:35.374Z,100777.88
2022-10-22T21:54:02.131Z,100778.38
2022-10-22T21:56:34.419Z,100780.06
2022-10-22T21:59:04.793Z,100773.66
2022-10-22T22:01:35.091Z,100771.94
2022-10-22T22:04:03.080Z,100777.69
2022-10-22T22:06:33.402Z,100772.22
2022-10-22T22:09:03.194Z,100773.06
2022-10-22T22:11:30.496Z,100771.00
2022-10-22T22:13:58.893Z,100770.63
2022-10-22T22:16:33.224Z,100768.47
2022-10-22T22:19:05.683Z,100772.50
2022-10-22T22:21:35.358Z,100779.19
2022-10-22T22:24:02.335Z,100780.84
2022-10-22T22:26:30.381Z,100774.91
2022-10-22T22:28:59.704Z,100773.31
2022-10-22T22:31:32.175Z,100778.50
2022-10-22T22:34:07.567Z,100770.56
2022-10-22T22:36:42.128Z,100775.88
2022-10-22T22:39:20.446Z,100778.91
2022-10-22T22:41:48.013Z,100779.25
2022-10-22T22:44:15.563Z,100774.78
2022-10-22T22:46:42.685Z,100777.28
2022-10-22T22:49:09.710Z,100773.69
2022-10-22T22:51:36.358Z,100781.91
2022-10-22T22:54:03.027Z,100776.81
2022-10-22T22:56:34.467Z,100766.03
2022-10-22T22:59:02.199Z,100768.63
2022-10-22T23:01:36.649Z,100764.94
2022-10-22T23:04:13.596Z,100764.56
2022-10-22T23:06:40.444Z,100772.03
2022-10-22T23:09:11.862Z,100762.88
2022-10-22T23:11:41.542Z,100759.94
2022-10-22T23:14:13.700Z,100760.72
2022-10-22T23:16:47.148Z,100756.16
2022-10-22T23:19:19.100Z,100758.25
2022-10-22T23:21:55.620Z,100762.09
2022-10-22T23:24:29.962Z,100758.84
2022-10-22T23:27:01.872Z,100751.69
2022-10-22T23:29:33.339Z,100744.97
2022-10-22T23:32:04.393Z,100747.22
2022-10-22T23:34:32.406Z,100745.28
2022-10-22T23:37:00.033Z,100747.38
2022-10-22T23:39:29.462Z,100750.53
2022-10-22T23:41:57.502Z,100751.13
2022-10-22T23:44:25.551Z,100750.22
2022-10-22T23:46:52.620Z,100757.47
2022-10-22T23:49:19.426Z,100747.38
2022-10-22T23:51:47.931Z,100748.53
2022-10-22T23:54:18.304Z,100755.47
2022-10-22T23:56:46.054Z,100756.53
